Main page
METAR-TAF:

METAR-TAF

Airports :

Bratsk Airport

Bratsk, Russia

latitude: 56-22-15N, longitude: 101-41-55E, elevation: 490 m

Current weather observation

The report was made 34 minutes ago, at 05:30 UTC
Wind 10 kt from the West/Northwest, varying between West/Southwest and North/Northwest
Temperature 7°C
Humidity 39%
Pressure 1016 hPa
Visibility 10 km or more

METAR: UIBB 260530Z 29005MPS 240V330 9999 NSC 07/M06 Q1016 R30/60D NOSIG RMK QFE719/0959

Time: 14:04 (06:04 UTC)

Forecast

The report was made 1 hour and 4 minutes ago, at 05:00 UTC
Forecast valid from 26 at 06 UTC to 27 at 06 UTC
Wind 10 kt from the Northwest with gusts up to 19 kt
Visibility 10 km or more
Scattered clouds at a height of 2000 ft, Cumulonimbus.

TAF: UIBB 260500Z 2606/2706 31005G10MPS 9999 SCT020CB

Weather observations and forecasts of more than 4000 airports (METAR and TAF reports).

The available stations are represented by yellow and red dots on the map.

Hover mouse over dot to see the name of the station.

Then click to see weather observations and forecasts.

To change the map : click on the green buttons with a black cross to zoom in, on the green button with a dash to zoom out, or on the green arrows for adjacent maps.


METAR-TAF: